sensor_id;sensor_type;location;lat;lon;timestamp;temperature;humidity
827;DHT22;395;48.132;11.608;2022-08-30T00:00:22;21.10;13.90
827;DHT22;395;48.132;11.608;2022-08-30T00:03:09;21.10;14.00
827;DHT22;395;48.132;11.608;2022-08-30T00:05:36;21.00;13.90
827;DHT22;395;48.132;11.608;2022-08-30T00:08:03;21.10;14.10
827;DHT22;395;48.132;11.608;2022-08-30T00:10:29;21.00;14.80
827;DHT22;395;48.132;11.608;2022-08-30T00:12:55;21.00;14.40
827;DHT22;395;48.132;11.608;2022-08-30T00:15:24;21.00;14.50
827;DHT22;395;48.132;11.608;2022-08-30T00:17:50;21.00;14.40
827;DHT22;395;48.132;11.608;2022-08-30T00:20:19;21.00;14.40
827;DHT22;395;48.132;11.608;2022-08-30T00:22:46;21.00;14.20
827;DHT22;395;48.132;11.608;2022-08-30T00:25:13;21.00;14.40
827;DHT22;395;48.132;11.608;2022-08-30T00:27:40;21.00;14.50
827;DHT22;395;48.132;11.608;2022-08-30T00:30:07;21.00;14.40
827;DHT22;395;48.132;11.608;2022-08-30T00:32:33;20.90;14.00
827;DHT22;395;48.132;11.608;2022-08-30T00:34:58;20.90;14.00
827;DHT22;395;48.132;11.608;2022-08-30T00:37:24;20.90;14.20
827;DHT22;395;48.132;11.608;2022-08-30T00:39:50;20.90;14.40
827;DHT22;395;48.132;11.608;2022-08-30T00:42:17;20.90;14.20
827;DHT22;395;48.132;11.608;2022-08-30T00:44:43;20.80;14.20
827;DHT22;395;48.132;11.608;2022-08-30T00:47:10;20.80;14.00
827;DHT22;395;48.132;11.608;2022-08-30T00:49:39;20.80;14.50
827;DHT22;395;48.132;11.608;2022-08-30T00:52:06;20.80;13.90
827;DHT22;395;48.132;11.608;2022-08-30T00:54:34;20.70;14.20
827;DHT22;395;48.132;11.608;2022-08-30T00:57:01;20.70;14.00
827;DHT22;395;48.132;11.608;2022-08-30T00:59:27;20.70;14.50
827;DHT22;395;48.132;11.608;2022-08-30T01:01:54;20.70;14.10
827;DHT22;395;48.132;11.608;2022-08-30T01:04:22;20.70;13.80
827;DHT22;395;48.132;11.608;2022-08-30T01:06:48;20.60;14.00
827;DHT22;395;48.132;11.608;2022-08-30T01:09:15;20.60;13.50
827;DHT22;395;48.132;11.608;2022-08-30T01:11:42;20.60;13.90
827;DHT22;395;48.132;11.608;2022-08-30T01:14:09;20.60;14.00
827;DHT22;395;48.132;11.608;2022-08-30T01:16:37;20.60;14.30
827;DHT22;395;48.132;11.608;2022-08-30T01:19:05;20.60;14.00
827;DHT22;395;48.132;11.608;2022-08-30T01:21:41;20.60;14.30
827;DHT22;395;48.132;11.608;2022-08-30T01:24:09;20.50;14.20
827;DHT22;395;48.132;11.608;2022-08-30T01:26:35;20.50;14.50
827;DHT22;395;48.132;11.608;2022-08-30T01:29:05;20.50;14.00
827;DHT22;395;48.132;11.608;2022-08-30T01:31:32;20.50;13.60
827;DHT22;395;48.132;11.608;2022-08-30T01:34:00;20.40;14.00
827;DHT22;395;48.132;11.608;2022-08-30T01:36:26;20.40;14.20
827;DHT22;395;48.132;11.608;2022-08-30T01:38:55;20.40;14.40
827;DHT22;395;48.132;11.608;2022-08-30T01:41:27;20.50;14.50
827;DHT22;395;48.132;11.608;2022-08-30T01:43:55;20.40;14.40
827;DHT22;395;48.132;11.608;2022-08-30T01:46:25;20.30;14.60
827;DHT22;395;48.132;11.608;2022-08-30T01:48:53;20.30;14.60
827;DHT22;395;48.132;11.608;2022-08-30T01:51:19;20.30;14.60
827;DHT22;395;48.132;11.608;2022-08-30T01:53:45;20.40;14.90
827;DHT22;395;48.132;11.608;2022-08-30T01:56:13;20.30;14.30
827;DHT22;395;48.132;11.608;2022-08-30T01:58:40;20.30;14.00
827;DHT22;395;48.132;11.608;2022-08-30T02:01:08;20.20;14.10
827;DHT22;395;48.132;11.608;2022-08-30T02:03:37;20.20;14.70
827;DHT22;395;48.132;11.608;2022-08-30T02:06:08;20.20;14.60
827;DHT22;395;48.132;11.608;2022-08-30T02:08:35;20.20;14.80
827;DHT22;395;48.132;11.608;2022-08-30T02:11:02;20.20;15.00
827;DHT22;395;48.132;11.608;2022-08-30T02:13:28;20.10;14.80
827;DHT22;395;48.132;11.608;2022-08-30T02:15:55;20.10;14.90
827;DHT22;395;48.132;11.608;2022-08-30T02:18:24;20.10;14.80
827;DHT22;395;48.132;11.608;2022-08-30T02:20:50;20.10;14.50
827;DHT22;395;48.132;11.608;2022-08-30T02:23:16;20.10;14.50
827;DHT22;395;48.132;11.608;2022-08-30T02:25:42;20.00;14.70
827;DHT22;395;48.132;11.608;2022-08-30T02:28:08;20.00;14.70
827;DHT22;395;48.132;11.608;2022-08-30T02:30:34;20.00;14.70
827;DHT22;395;48.132;11.608;2022-08-30T02:33:00;20.00;14.90
827;DHT22;395;48.132;11.608;2022-08-30T02:35:26;20.00;14.10
827;DHT22;395;48.132;11.608;2022-08-30T02:37:52;20.00;14.50
827;DHT22;395;48.132;11.608;2022-08-30T02:40:18;20.00;14.90
827;DHT22;395;48.132;11.608;2022-08-30T02:42:44;19.90;15.70
827;DHT22;395;48.132;11.608;2022-08-30T02:45:10;19.90;15.20
827;DHT22;395;48.132;11.608;2022-08-30T02:47:36;19.90;15.80
827;DHT22;395;48.132;11.608;2022-08-30T02:50:04;19.90;16.80
827;DHT22;395;48.132;11.608;2022-08-30T02:52:29;19.90;16.60
827;DHT22;395;48.132;11.608;2022-08-30T02:54:55;19.90;16.10
827;DHT22;395;48.132;11.608;2022-08-30T02:57:21;19.90;16.30
827;DHT22;395;48.132;11.608;2022-08-30T02:59:47;19.90;16.30
827;DHT22;395;48.132;11.608;2022-08-30T03:02:14;19.90;15.20
827;DHT22;395;48.132;11.608;2022-08-30T03:04:40;19.90;14.90
827;DHT22;395;48.132;11.608;2022-08-30T03:07:06;19.80;14.70
827;DHT22;395;48.132;11.608;2022-08-30T03:09:33;19.80;15.10
827;DHT22;395;48.132;11.608;2022-08-30T03:11:59;19.80;15.30
827;DHT22;395;48.132;11.608;2022-08-30T03:14:24;19.80;16.10
827;DHT22;395;48.132;11.608;2022-08-30T03:16:50;19.80;15.60
827;DHT22;395;48.132;11.608;2022-08-30T03:19:17;19.80;15.40
827;DHT22;395;48.132;11.608;2022-08-30T03:21:42;19.80;15.40
827;DHT22;395;48.132;11.608;2022-08-30T03:24:09;19.80;15.80
827;DHT22;395;48.132;11.608;2022-08-30T03:26:35;19.80;16.40
827;DHT22;395;48.132;11.608;2022-08-30T03:29:01;19.80;16.20
827;DHT22;395;48.132;11.608;2022-08-30T03:31:27;19.80;15.90
827;DHT22;395;48.132;11.608;2022-08-30T03:33:52;19.80;15.70
827;DHT22;395;48.132;11.608;2022-08-30T03:36:18;19.80;15.20
827;DHT22;395;48.132;11.608;2022-08-30T03:38:44;19.80;15.10
827;DHT22;395;48.132;11.608;2022-08-30T03:41:10;19.70;15.10
827;DHT22;395;48.132;11.608;2022-08-30T03:43:35;19.70;14.70
827;DHT22;395;48.132;11.608;2022-08-30T03:46:02;19.70;14.60
827;DHT22;395;48.132;11.608;2022-08-30T03:48:28;19.70;15.00
827;DHT22;395;48.132;11.608;2022-08-30T03:50:54;19.70;15.10
827;DHT22;395;48.132;11.608;2022-08-30T03:53:19;19.60;15.60
827;DHT22;395;48.132;11.608;2022-08-30T03:55:45;19.60;16.00
827;DHT22;395;48.132;11.608;2022-08-30T03:58:11;19.60;15.60
827;DHT22;395;48.132;11.608;2022-08-30T04:00:37;19.60;15.60
827;DHT22;395;48.132;11.608;2022-08-30T04:03:02;19.60;16.30
827;DHT22;395;48.132;11.608;2022-08-30T04:05:28;19.60;16.20
827;DHT22;395;48.132;11.608;2022-08-30T04:07:54;19.60;16.30
827;DHT22;395;48.132;11.608;2022-08-30T04:10:20;19.60;16.40
827;DHT22;395;48.132;11.608;2022-08-30T04:12:49;19.60;16.70
827;DHT22;395;48.132;11.608;2022-08-30T04:15:16;19.60;16.40
827;DHT22;395;48.132;11.608;2022-08-30T04:17:42;19.60;16.90
827;DHT22;395;48.132;11.608;2022-08-30T04:20:08;19.60;17.10
827;DHT22;395;48.132;11.608;2022-08-30T04:22:34;19.60;16.20
827;DHT22;395;48.132;11.608;2022-08-30T04:25:01;19.60;15.90
827;DHT22;395;48.132;11.608;2022-08-30T04:27:26;19.60;16.10
827;DHT22;395;48.132;11.608;2022-08-30T04:29:52;19.50;15.40
827;DHT22;395;48.132;11.608;2022-08-30T04:32:20;19.50;15.50
827;DHT22;395;48.132;11.608;2022-08-30T04:34:45;19.50;15.70
827;DHT22;395;48.132;11.608;2022-08-30T04:37:11;19.50;15.30
827;DHT22;395;48.132;11.608;2022-08-30T04:39:37;19.50;15.60
827;DHT22;395;48.132;11.608;2022-08-30T04:42:03;19.50;16.10
827;DHT22;395;48.132;11.608;2022-08-30T04:44:30;19.50;15.40
827;DHT22;395;48.132;11.608;2022-08-30T04:46:56;19.50;15.20
827;DHT22;395;48.132;11.608;2022-08-30T04:49:22;19.50;15.70
827;DHT22;395;48.132;11.608;2022-08-30T04:51:47;19.50;16.40
827;DHT22;395;48.132;11.608;2022-08-30T04:54:13;19.50;16.10
827;DHT22;395;48.132;11.608;2022-08-30T04:56:39;19.50;16.20
827;DHT22;395;48.132;11.608;2022-08-30T04:59:04;19.50;16.80
827;DHT22;395;48.132;11.608;2022-08-30T05:01:31;19.50;16.50
827;DHT22;395;48.132;11.608;2022-08-30T05:03:58;19.50;16.20
827;DHT22;395;48.132;11.608;2022-08-30T05:06:26;19.60;16.10
827;DHT22;395;48.132;11.608;2022-08-30T05:08:52;19.60;16.00
827;DHT22;395;48.132;11.608;2022-08-30T05:11:19;19.60;15.70
827;DHT22;395;48.132;11.608;2022-08-30T05:13:45;19.60;16.10
827;DHT22;395;48.132;11.608;2022-08-30T05:16:12;19.60;16.00
827;DHT22;395;48.132;11.608;2022-08-30T05:18:43;19.60;16.20
827;DHT22;395;48.132;11.608;2022-08-30T05:21:14;19.60;16.70
827;DHT22;395;48.132;11.608;2022-08-30T05:23:41;19.70;16.60
827;DHT22;395;48.132;11.608;2022-08-30T05:26:29;19.70;16.70
827;DHT22;395;48.132;11.608;2022-08-30T05:28:55;19.70;16.90
827;DHT22;395;48.132;11.608;2022-08-30T05:31:32;19.70;17.20
827;DHT22;395;48.132;11.608;2022-08-30T05:33:59;19.80;16.70
827;DHT22;395;48.132;11.608;2022-08-30T05:36:28;19.80;16.10
827;DHT22;395;48.132;11.608;2022-08-30T05:38:55;19.80;16.60
827;DHT22;395;48.132;11.608;2022-08-30T05:41:22;19.80;15.80
827;DHT22;395;48.132;11.608;2022-08-30T05:43:52;19.80;14.90
827;DHT22;395;48.132;11.608;2022-08-30T05:46:18;19.80;15.20
827;DHT22;395;48.132;11.608;2022-08-30T05:48:44;19.80;14.90
827;DHT22;395;48.132;11.608;2022-08-30T05:51:12;19.80;14.70
827;DHT22;395;48.132;11.608;2022-08-30T05:53:39;19.80;14.50
827;DHT22;395;48.132;11.608;2022-08-30T05:56:09;19.80;14.20
827;DHT22;395;48.132;11.608;2022-08-30T05:58:35;19.80;14.40
827;DHT22;395;48.132;11.608;2022-08-30T06:01:01;19.80;14.80
827;DHT22;395;48.132;11.608;2022-08-30T06:03:27;19.90;15.10
827;DHT22;395;48.132;11.608;2022-08-30T06:05:53;19.90;14.90
827;DHT22;395;48.132;11.608;2022-08-30T06:08:20;20.00;14.50
827;DHT22;395;48.132;11.608;2022-08-30T06:10:45;20.00;14.70
827;DHT22;395;48.132;11.608;2022-08-30T06:13:13;20.00;14.60
827;DHT22;395;48.132;11.608;2022-08-30T06:15:39;20.00;14.90
827;DHT22;395;48.132;11.608;2022-08-30T06:18:06;20.00;14.70
827;DHT22;395;48.132;11.608;2022-08-30T06:20:31;20.00;14.50
827;DHT22;395;48.132;11.608;2022-08-30T06:22:57;20.10;14.60
827;DHT22;395;48.132;11.608;2022-08-30T06:25:23;20.10;14.00
827;DHT22;395;48.132;11.608;2022-08-30T06:27:48;20.10;14.20
827;DHT22;395;48.132;11.608;2022-08-30T06:30:14;20.20;14.20
827;DHT22;395;48.132;11.608;2022-08-30T06:32:40;20.20;14.30
827;DHT22;395;48.132;11.608;2022-08-30T06:35:06;20.20;13.90
827;DHT22;395;48.132;11.608;2022-08-30T06:37:33;20.30;14.20
827;DHT22;395;48.132;11.608;2022-08-30T06:39:59;20.30;14.30
827;DHT22;395;48.132;11.608;2022-08-30T06:42:26;20.30;14.30
827;DHT22;395;48.132;11.608;2022-08-30T06:45:00;20.40;14.40
827;DHT22;395;48.132;11.608;2022-08-30T06:47:27;20.50;14.00
827;DHT22;395;48.132;11.608;2022-08-30T06:49:53;20.50;13.60
827;DHT22;395;48.132;11.608;2022-08-30T06:52:19;20.60;13.80
827;DHT22;395;48.132;11.608;2022-08-30T06:54:45;20.60;13.80
827;DHT22;395;48.132;11.608;2022-08-30T06:57:11;20.70;14.00
827;DHT22;395;48.132;11.608;2022-08-30T06:59:37;20.70;14.00
827;DHT22;395;48.132;11.608;2022-08-30T07:02:04;20.70;13.60
827;DHT22;395;48.132;11.608;2022-08-30T07:04:30;20.80;14.00
827;DHT22;395;48.132;11.608;2022-08-30T07:06:55;20.80;14.20
827;DHT22;395;48.132;11.608;2022-08-30T07:09:21;20.90;13.90
827;DHT22;395;48.132;11.608;2022-08-30T07:11:47;20.90;14.10
827;DHT22;395;48.132;11.608;2022-08-30T07:14:13;21.00;14.00
827;DHT22;395;48.132;11.608;2022-08-30T07:16:39;21.00;14.30
827;DHT22;395;48.132;11.608;2022-08-30T07:19:05;21.10;14.40
827;DHT22;395;48.132;11.608;2022-08-30T07:21:37;21.10;14.10
827;DHT22;395;48.132;11.608;2022-08-30T07:24:04;21.20;14.00
827;DHT22;395;48.132;11.608;2022-08-30T07:26:37;21.20;13.10
827;DHT22;395;48.132;11.608;2022-08-30T07:29:03;21.20;13.50
827;DHT22;395;48.132;11.608;2022-08-30T07:31:29;21.30;13.30
827;DHT22;395;48.132;11.608;2022-08-30T07:33:55;21.40;12.70
827;DHT22;395;48.132;11.608;2022-08-30T07:36:21;21.40;12.30
827;DHT22;395;48.132;11.608;2022-08-30T07:38:49;21.50;11.80
827;DHT22;395;48.132;11.608;2022-08-30T07:41:18;21.50;11.40
827;DHT22;395;48.132;11.608;2022-08-30T07:43:44;21.60;12.00
827;DHT22;395;48.132;11.608;2022-08-30T07:46:09;21.60;11.80
827;DHT22;395;48.132;11.608;2022-08-30T07:48:35;21.70;11.80
827;DHT22;395;48.132;11.608;2022-08-30T07:51:01;21.70;11.90
827;DHT22;395;48.132;11.608;2022-08-30T07:53:29;21.80;11.60
827;DHT22;395;48.132;11.608;2022-08-30T07:55:55;21.80;12.20
827;DHT22;395;48.132;11.608;2022-08-30T07:58:21;21.90;11.70
827;DHT22;395;48.132;11.608;2022-08-30T08:00:47;21.90;11.70
827;DHT22;395;48.132;11.608;2022-08-30T08:03:13;22.00;11.70
827;DHT22;395;48.132;11.608;2022-08-30T08:05:43;22.00;11.70
827;DHT22;395;48.132;11.608;2022-08-30T08:08:10;22.00;11.70
827;DHT22;395;48.132;11.608;2022-08-30T08:10:37;22.10;12.10
827;DHT22;395;48.132;11.608;2022-08-30T08:13:04;22.10;11.90
827;DHT22;395;48.132;11.608;2022-08-30T08:15:29;22.10;11.40
827;DHT22;395;48.132;11.608;2022-08-30T08:17:55;22.20;11.30
827;DHT22;395;48.132;11.608;2022-08-30T08:20:21;22.20;11.70
827;DHT22;395;48.132;11.608;2022-08-30T08:22:47;22.20;11.00
827;DHT22;395;48.132;11.608;2022-08-30T08:25:13;22.30;11.70
827;DHT22;395;48.132;11.608;2022-08-30T08:27:40;22.30;10.90
827;DHT22;395;48.132;11.608;2022-08-30T08:30:06;22.40;10.90
827;DHT22;395;48.132;11.608;2022-08-30T08:32:32;22.40;10.50
827;DHT22;395;48.132;11.608;2022-08-30T08:34:58;22.50;9.90
827;DHT22;395;48.132;11.608;2022-08-30T08:37:23;22.50;9.60
827;DHT22;395;48.132;11.608;2022-08-30T08:39:49;22.50;9.90
827;DHT22;395;48.132;11.608;2022-08-30T08:42:40;22.60;9.40
827;DHT22;395;48.132;11.608;2022-08-30T08:45:15;22.60;9.30
827;DHT22;395;48.132;11.608;2022-08-30T08:48:02;22.60;8.50
827;DHT22;395;48.132;11.608;2022-08-30T08:50:29;22.70;8.50
827;DHT22;395;48.132;11.608;2022-08-30T08:53:11;22.80;9.10
827;DHT22;395;48.132;11.608;2022-08-30T08:55:57;22.80;9.00
827;DHT22;395;48.132;11.608;2022-08-30T08:58:24;22.80;9.00
827;DHT22;395;48.132;11.608;2022-08-30T09:00:51;22.90;9.30
827;DHT22;395;48.132;11.608;2022-08-30T09:03:20;22.90;8.80
827;DHT22;395;48.132;11.608;2022-08-30T09:05:46;22.90;8.50
827;DHT22;395;48.132;11.608;2022-08-30T09:08:15;23.00;8.00
827;DHT22;395;48.132;11.608;2022-08-30T09:10:52;23.00;7.70
827;DHT22;395;48.132;11.608;2022-08-30T09:13:19;23.00;6.70
827;DHT22;395;48.132;11.608;2022-08-30T09:15:45;23.00;7.00
827;DHT22;395;48.132;11.608;2022-08-30T09:18:11;23.10;7.20
827;DHT22;395;48.132;11.608;2022-08-30T09:20:38;23.10;7.40
827;DHT22;395;48.132;11.608;2022-08-30T09:28:23;23.20;6.50
827;DHT22;395;48.132;11.608;2022-08-30T09:34:05;23.30;4.90
827;DHT22;395;48.132;11.608;2022-08-30T09:36:34;23.30;5.00
827;DHT22;395;48.132;11.608;2022-08-30T09:39:27;23.30;3.60
827;DHT22;395;48.132;11.608;2022-08-30T09:42:11;23.40;4.30
827;DHT22;395;48.132;11.608;2022-08-30T09:44:38;23.40;1.70
827;DHT22;395;48.132;11.608;2022-08-30T09:47:03;23.40;2.90
827;DHT22;395;48.132;11.608;2022-08-30T09:49:41;23.40;2.70
827;DHT22;395;48.132;11.608;2022-08-30T09:52:17;23.50;2.50
827;DHT22;395;48.132;11.608;2022-08-30T09:54:47;23.50;2.60
827;DHT22;395;48.132;11.608;2022-08-30T10:00:04;23.60;1.60
827;DHT22;395;48.132;11.608;2022-08-30T10:05:45;23.70;1.80
827;DHT22;395;48.132;11.608;2022-08-30T10:11:07;23.70;1.30
827;DHT22;395;48.132;11.608;2022-08-30T10:16:20;23.70;1.00
827;DHT22;395;48.132;11.608;2022-08-30T10:21:51;23.70;1.00
827;DHT22;395;48.132;11.608;2022-08-30T10:24:21;23.70;1.00
827;DHT22;395;48.132;11.608;2022-08-30T10:26:55;23.80;1.00
827;DHT22;395;48.132;11.608;2022-08-30T10:29:35;23.80;1.00
827;DHT22;395;48.132;11.608;2022-08-30T10:34:55;23.80;1.00
827;DHT22;395;48.132;11.608;2022-08-30T10:37:25;23.80;1.00
827;DHT22;395;48.132;11.608;2022-08-30T10:43:33;23.80;1.00
827;DHT22;395;48.132;11.608;2022-08-30T10:46:09;23.80;1.00
827;DHT22;395;48.132;11.608;2022-08-30T10:48:38;23.90;1.00
827;DHT22;395;48.132;11.608;2022-08-30T10:51:09;24.00;1.00
827;DHT22;395;48.132;11.608;2022-08-30T10:53:45;24.20;1.00
827;DHT22;395;48.132;11.608;2022-08-30T10:56:16;24.20;1.00
827;DHT22;395;48.132;11.608;2022-08-30T10:58:45;24.30;1.00
827;DHT22;395;48.132;11.608;2022-08-30T11:12:23;24.40;1.00
827;DHT22;395;48.132;11.608;2022-08-30T11:14:51;24.40;1.00
827;DHT22;395;48.132;11.608;2022-08-30T11:17:35;24.40;1.00
827;DHT22;395;48.132;11.608;2022-08-30T11:20:03;24.40;1.00
827;DHT22;395;48.132;11.608;2022-08-30T11:22:32;24.40;1.00
827;DHT22;395;48.132;11.608;2022-08-30T11:25:09;24.50;1.00
827;DHT22;395;48.132;11.608;2022-08-30T11:27:50;24.50;1.00
827;DHT22;395;48.132;11.608;2022-08-30T11:35:45;24.50;1.00
827;DHT22;395;48.132;11.608;2022-08-30T11:41:06;24.70;1.00
827;DHT22;395;48.132;11.608;2022-08-30T11:48:48;24.70;1.00
827;DHT22;395;48.132;11.608;2022-08-30T11:57:25;24.90;1.00
827;DHT22;395;48.132;11.608;2022-08-30T12:02:49;24.90;1.00
827;DHT22;395;48.132;11.608;2022-08-30T12:08:05;25.10;1.00
827;DHT22;395;48.132;11.608;2022-08-30T12:10:41;25.00;1.00
827;DHT22;395;48.132;11.608;2022-08-30T12:13:09;25.00;1.00
827;DHT22;395;48.132;11.608;2022-08-30T12:15:52;25.10;1.00
827;DHT22;395;48.132;11.608;2022-08-30T12:18:23;25.00;1.00
827;DHT22;395;48.132;11.608;2022-08-30T12:20:53;24.90;1.00
827;DHT22;395;48.132;11.608;2022-08-30T12:23:38;24.90;1.00
827;DHT22;395;48.132;11.608;2022-08-30T12:26:37;25.10;1.00
827;DHT22;395;48.132;11.608;2022-08-30T12:31:47;25.30;1.00
827;DHT22;395;48.132;11.608;2022-08-30T12:34:35;25.40;1.00
827;DHT22;395;48.132;11.608;2022-08-30T12:37:19;25.40;1.00
827;DHT22;395;48.132;11.608;2022-08-30T12:39:45;25.50;1.00
827;DHT22;395;48.132;11.608;2022-08-30T12:44:39;25.70;1.00
827;DHT22;395;48.132;11.608;2022-08-30T12:47:06;25.70;1.00
827;DHT22;395;48.132;11.608;2022-08-30T12:49:35;25.80;1.00
827;DHT22;395;48.132;11.608;2022-08-30T12:54:55;26.00;1.00
827;DHT22;395;48.132;11.608;2022-08-30T12:58:00;26.10;1.00
827;DHT22;395;48.132;11.608;2022-08-30T13:03:32;26.20;1.00
827;DHT22;395;48.132;11.608;2022-08-30T13:05:58;26.20;1.00
827;DHT22;395;48.132;11.608;2022-08-30T13:08:33;26.20;1.00
827;DHT22;395;48.132;11.608;2022-08-30T13:13:37;26.50;1.00
827;DHT22;395;48.132;11.608;2022-08-30T13:18:52;26.60;1.00
827;DHT22;395;48.132;11.608;2022-08-30T13:21:33;26.60;1.00
827;DHT22;395;48.132;11.608;2022-08-30T13:24:04;26.70;1.00
827;DHT22;395;48.132;11.608;2022-08-30T13:26:35;26.90;1.00
827;DHT22;395;48.132;11.608;2022-08-30T13:29:05;27.00;1.00
827;DHT22;395;48.132;11.608;2022-08-30T13:31:31;27.20;1.00
827;DHT22;395;48.132;11.608;2022-08-30T13:33:57;27.40;1.00
827;DHT22;395;48.132;11.608;2022-08-30T13:36:32;27.50;1.00
827;DHT22;395;48.132;11.608;2022-08-30T13:38:59;27.70;1.00
827;DHT22;395;48.132;11.608;2022-08-30T13:41:26;27.60;1.00
827;DHT22;395;48.132;11.608;2022-08-30T13:43:52;27.70;1.00
827;DHT22;395;48.132;11.608;2022-08-30T13:46:19;27.60;1.00
827;DHT22;395;48.132;11.608;2022-08-30T13:48:47;27.70;1.00
827;DHT22;395;48.132;11.608;2022-08-30T13:51:13;27.70;1.00
827;DHT22;395;48.132;11.608;2022-08-30T13:53:39;27.80;1.00
827;DHT22;395;48.132;11.608;2022-08-30T13:56:05;27.90;1.00
827;DHT22;395;48.132;11.608;2022-08-30T13:58:31;27.80;1.00
827;DHT22;395;48.132;11.608;2022-08-30T14:00:58;27.60;1.00
827;DHT22;395;48.132;11.608;2022-08-30T14:03:24;27.80;1.00
827;DHT22;395;48.132;11.608;2022-08-30T14:05:50;28.00;1.00
827;DHT22;395;48.132;11.608;2022-08-30T14:08:20;28.10;1.00
827;DHT22;395;48.132;11.608;2022-08-30T14:10:46;28.10;1.00
827;DHT22;395;48.132;11.608;2022-08-30T14:13:11;28.10;1.00
827;DHT22;395;48.132;11.608;2022-08-30T14:15:38;28.10;1.00
827;DHT22;395;48.132;11.608;2022-08-30T14:18:04;28.10;1.00
827;DHT22;395;48.132;11.608;2022-08-30T14:20:31;28.10;1.00
827;DHT22;395;48.132;11.608;2022-08-30T14:22:56;28.10;1.00
827;DHT22;395;48.132;11.608;2022-08-30T14:25:22;28.10;1.00
827;DHT22;395;48.132;11.608;2022-08-30T14:27:48;28.30;1.00
827;DHT22;395;48.132;11.608;2022-08-30T14:30:13;28.40;1.00
827;DHT22;395;48.132;11.608;2022-08-30T14:32:39;28.40;1.00
827;DHT22;395;48.132;11.608;2022-08-30T14:35:05;28.50;1.00
827;DHT22;395;48.132;11.608;2022-08-30T14:37:31;28.60;1.00
827;DHT22;395;48.132;11.608;2022-08-30T14:39:57;28.70;1.00
827;DHT22;395;48.132;11.608;2022-08-30T14:42:23;28.80;1.00
827;DHT22;395;48.132;11.608;2022-08-30T14:44:49;28.80;1.00
827;DHT22;395;48.132;11.608;2022-08-30T14:47:14;28.80;1.00
827;DHT22;395;48.132;11.608;2022-08-30T14:49:40;28.80;1.00
827;DHT22;395;48.132;11.608;2022-08-30T14:52:06;28.90;1.00
827;DHT22;395;48.132;11.608;2022-08-30T14:54:31;28.70;1.00
827;DHT22;395;48.132;11.608;2022-08-30T14:56:59;28.70;1.00
827;DHT22;395;48.132;11.608;2022-08-30T14:59:25;28.90;1.00
827;DHT22;395;48.132;11.608;2022-08-30T15:01:51;28.90;1.00
827;DHT22;395;48.132;11.608;2022-08-30T15:04:17;29.00;1.00
827;DHT22;395;48.132;11.608;2022-08-30T15:06:45;28.90;1.00
827;DHT22;395;48.132;11.608;2022-08-30T15:09:13;28.80;1.00
827;DHT22;395;48.132;11.608;2022-08-30T15:11:40;28.80;1.00
827;DHT22;395;48.132;11.608;2022-08-30T15:14:07;28.80;1.00
827;DHT22;395;48.132;11.608;2022-08-30T15:16:34;28.80;1.00
827;DHT22;395;48.132;11.608;2022-08-30T15:19:02;28.90;1.00
827;DHT22;395;48.132;11.608;2022-08-30T15:21:30;29.00;1.00
827;DHT22;395;48.132;11.608;2022-08-30T15:23:58;29.20;1.00
827;DHT22;395;48.132;11.608;2022-08-30T15:26:24;29.20;1.00
827;DHT22;395;48.132;11.608;2022-08-30T15:28:50;29.40;1.00
827;DHT22;395;48.132;11.608;2022-08-30T15:31:21;29.40;1.00
827;DHT22;395;48.132;11.608;2022-08-30T15:33:47;29.30;1.00
827;DHT22;395;48.132;11.608;2022-08-30T15:36:13;29.40;1.00
827;DHT22;395;48.132;11.608;2022-08-30T15:38:39;29.40;1.00
827;DHT22;395;48.132;11.608;2022-08-30T15:41:08;29.40;1.00
827;DHT22;395;48.132;11.608;2022-08-30T15:43:35;29.40;1.00
827;DHT22;395;48.132;11.608;2022-08-30T15:48:47;29.20;1.00
827;DHT22;395;48.132;11.608;2022-08-30T15:51:14;29.30;1.00
827;DHT22;395;48.132;11.608;2022-08-30T15:53:42;29.30;1.00
827;DHT22;395;48.132;11.608;2022-08-30T15:56:08;29.40;1.00
827;DHT22;395;48.132;11.608;2022-08-30T15:58:36;29.40;1.00
827;DHT22;395;48.132;11.608;2022-08-30T16:01:02;29.20;1.00
827;DHT22;395;48.132;11.608;2022-08-30T16:03:29;29.10;1.00
827;DHT22;395;48.132;11.608;2022-08-30T16:05:55;29.20;1.00
827;DHT22;395;48.132;11.608;2022-08-30T16:08:21;29.20;1.00
827;DHT22;395;48.132;11.608;2022-08-30T16:10:47;29.10;1.00
827;DHT22;395;48.132;11.608;2022-08-30T16:13:14;29.20;1.00
827;DHT22;395;48.132;11.608;2022-08-30T16:15:40;29.20;1.00
827;DHT22;395;48.132;11.608;2022-08-30T16:18:05;29.10;1.00
827;DHT22;395;48.132;11.608;2022-08-30T16:20:31;29.10;1.00
827;DHT22;395;48.132;11.608;2022-08-30T16:22:57;29.00;1.00
827;DHT22;395;48.132;11.608;2022-08-30T16:25:22;29.00;1.00
827;DHT22;395;48.132;11.608;2022-08-30T16:27:48;29.00;1.00
827;DHT22;395;48.132;11.608;2022-08-30T16:30:14;28.90;1.00
827;DHT22;395;48.132;11.608;2022-08-30T16:32:40;29.00;1.00
827;DHT22;395;48.132;11.608;2022-08-30T16:35:06;28.90;1.00
827;DHT22;395;48.132;11.608;2022-08-30T16:37:32;28.90;1.00
827;DHT22;395;48.132;11.608;2022-08-30T16:39:58;28.80;1.00
827;DHT22;395;48.132;11.608;2022-08-30T16:42:24;28.80;1.00
827;DHT22;395;48.132;11.608;2022-08-30T16:44:50;28.80;1.00
827;DHT22;395;48.132;11.608;2022-08-30T16:47:15;28.70;1.00
827;DHT22;395;48.132;11.608;2022-08-30T16:49:41;28.70;1.00
827;DHT22;395;48.132;11.608;2022-08-30T16:52:07;28.50;1.00
827;DHT22;395;48.132;11.608;2022-08-30T16:54:33;28.30;1.00
827;DHT22;395;48.132;11.608;2022-08-30T16:56:58;28.10;1.00
827;DHT22;395;48.132;11.608;2022-08-30T16:59:24;28.00;1.00
827;DHT22;395;48.132;11.608;2022-08-30T17:01:49;27.90;1.00
827;DHT22;395;48.132;11.608;2022-08-30T17:04:16;27.80;1.00
827;DHT22;395;48.132;11.608;2022-08-30T17:06:41;27.70;1.00
827;DHT22;395;48.132;11.608;2022-08-30T17:09:07;27.60;1.00
827;DHT22;395;48.132;11.608;2022-08-30T17:11:34;27.50;1.00
827;DHT22;395;48.132;11.608;2022-08-30T17:14:00;27.50;1.00
827;DHT22;395;48.132;11.608;2022-08-30T17:16:26;27.30;1.00
827;DHT22;395;48.132;11.608;2022-08-30T17:18:58;27.30;1.00
827;DHT22;395;48.132;11.608;2022-08-30T17:21:24;27.10;1.00
827;DHT22;395;48.132;11.608;2022-08-30T17:23:49;27.00;1.00
827;DHT22;395;48.132;11.608;2022-08-30T17:26:16;27.00;1.00
827;DHT22;395;48.132;11.608;2022-08-30T17:28:42;26.90;1.00
827;DHT22;395;48.132;11.608;2022-08-30T17:31:08;26.90;1.00
827;DHT22;395;48.132;11.608;2022-08-30T17:33:34;26.90;1.00
827;DHT22;395;48.132;11.608;2022-08-30T17:36:04;26.80;1.00
827;DHT22;395;48.132;11.608;2022-08-30T17:38:30;26.70;1.00
827;DHT22;395;48.132;11.608;2022-08-30T17:41:03;26.60;1.00
827;DHT22;395;48.132;11.608;2022-08-30T17:43:29;26.60;1.00
827;DHT22;395;48.132;11.608;2022-08-30T17:46:07;26.50;1.00
827;DHT22;395;48.132;11.608;2022-08-30T17:48:33;26.40;1.00
827;DHT22;395;48.132;11.608;2022-08-30T17:50:59;26.30;1.00
827;DHT22;395;48.132;11.608;2022-08-30T17:53:25;26.20;1.00
827;DHT22;395;48.132;11.608;2022-08-30T17:55:51;26.10;1.00